Time;durP1;ratioP1;P1;durP2;ratioP2;P2;SDS_P1;SDS_P2;PMS_P1;PMS_P2;Temp;Humidity;BMP_temperature;BMP_pressure;BME280_temperature;BME280_humidity;BME280_pressure;Samples;Min_cycle;Max_cycle;Signal;HPM_P1;HPM_P2
2023/10/10 00:02:05;;;;;;;9.13;4.10;;;15.80;81.20;;;;;;4984736;28;20038;-64
2023/10/10 00:04:33;;;;;;;12.93;3.83;;;15.80;81.20;;;;;;4983324;28;20521;-64
2023/10/10 00:07:07;;;;;;;13.00;4.25;;;15.80;81.20;;;;;;4985838;28;20062;-64
2023/10/10 00:09:33;;;;;;;11.47;3.70;;;15.90;81.20;;;;;;4986746;28;20035;-64
2023/10/10 00:11:58;;;;;;;10.70;3.78;;;15.90;81.10;;;;;;4987567;28;20045;-64
2023/10/10 00:14:27;;;;;;;12.32;3.97;;;15.90;81.00;;;;;;4985881;28;20096;-64
2023/10/10 00:16:59;;;;;;;10.77;3.72;;;15.90;81.00;;;;;;4983186;28;20038;-64
2023/10/10 00:19:37;;;;;;;8.35;3.78;;;15.90;81.10;;;;;;4984954;28;20030;-65
2023/10/10 00:22:05;;;;;;;9.07;3.58;;;15.90;82.00;;;;;;4987133;28;20077;-64
2023/10/10 00:24:31;;;;;;;11.55;3.45;;;15.90;81.10;;;;;;4981737;28;20494;-64
2023/10/10 00:27:23;;;;;;;11.18;3.70;;;15.90;81.00;;;;;;4985780;28;20129;-64
2023/10/10 00:29:48;;;;;;;9.27;3.60;;;15.80;81.20;;;;;;4986023;28;20040;-64
2023/10/10 00:32:18;;;;;;;10.80;3.50;;;15.90;80.90;;;;;;4984865;28;20038;-65
2023/10/10 00:34:48;;;;;;;13.75;3.70;;;15.90;80.80;;;;;;4982529;28;21958;-64
2023/10/10 00:37:22;;;;;;;12.98;4.20;;;15.80;81.00;;;;;;4985812;28;20097;-64
2023/10/10 00:39:53;;;;;;;12.55;4.78;;;15.90;81.50;;;;;;4985689;28;20233;-65
2023/10/10 00:42:41;;;;;;;14.32;5.43;;;15.80;81.20;;;;;;4988742;28;20038;-64
2023/10/10 00:45:14;;;;;;;13.88;4.88;;;15.80;81.50;;;;;;4988800;28;20382;-64
2023/10/10 00:47:52;;;;;;;14.00;5.03;;;15.80;81.20;;;;;;4988558;28;20042;-64
2023/10/10 00:50:23;;;;;;;16.60;5.15;;;15.80;81.30;;;;;;4988393;28;20053;-64
2023/10/10 00:53:00;;;;;;;15.40;5.15;;;15.80;81.30;;;;;;4987908;28;20041;-64
2023/10/10 00:55:33;;;;;;;11.02;4.95;;;15.80;81.50;;;;;;4989423;28;20042;-64
2023/10/10 00:58:00;;;;;;;10.55;4.57;;;15.70;81.50;;;;;;4988370;28;20509;-64
2023/10/10 01:00:29;;;;;;;13.13;5.20;;;15.70;81.50;;;;;;4989964;28;20517;-64
2023/10/10 01:02:57;;;;;;;11.73;4.95;;;15.60;81.60;;;;;;4987138;28;20045;-65
2023/10/10 01:05:39;;;;;;;15.02;5.32;;;15.60;81.70;;;;;;4988159;28;20121;-65
2023/10/10 01:08:08;;;;;;;11.00;5.30;;;15.60;81.70;;;;;;4988119;28;20588;-64
2023/10/10 01:10:43;;;;;;;8.05;4.25;;;15.60;81.50;;;;;;4986889;28;20553;-64
2023/10/10 01:13:10;;;;;;;13.05;4.97;;;15.60;81.50;;;;;;4987998;28;20050;-64
2023/10/10 01:15:37;;;;;;;14.05;5.38;;;15.50;81.50;;;;;;4988297;28;20485;-65
2023/10/10 01:18:03;;;;;;;15.02;5.65;;;15.50;81.60;;;;;;4988569;28;20042;-65
2023/10/10 01:20:45;;;;;;;11.50;5.00;;;15.50;81.70;;;;;;4987667;28;20060;-64
2023/10/10 01:23:16;;;;;;;12.57;4.90;;;15.50;81.90;;;;;;4988223;28;20032;-65
2023/10/10 01:25:48;;;;;;;12.88;4.93;;;15.40;81.90;;;;;;4988401;28;20177;-64
2023/10/10 01:33:22;;;;;;;14.18;4.90;;;15.30;82.40;;;;;;4986878;28;20063;-65
2023/10/10 01:35:49;;;;;;;15.00;4.88;;;15.30;82.40;;;;;;4987507;28;20116;-63
2023/10/10 01:38:38;;;;;;;17.88;4.95;;;15.30;82.50;;;;;;4987876;28;20380;-64
2023/10/10 01:41:31;;;;;;;14.18;5.00;;;15.30;82.90;;;;;;4987764;28;20031;-64
2023/10/10 01:44:08;;;;;;;10.85;4.50;;;15.20;82.50;;;;;;4987026;28;20034;-64
2023/10/10 01:46:35;;;;;;;17.45;5.60;;;15.20;82.60;;;;;;4987536;28;20038;-64
2023/10/10 01:49:06;;;;;;;17.63;5.32;;;15.20;82.60;;;;;;4987370;28;20042;-64
2023/10/10 01:51:35;;;;;;;16.52;5.20;;;15.20;82.70;;;;;;4987921;28;20038;-65
2023/10/10 01:54:14;;;;;;;12.77;4.93;;;15.20;83.30;;;;;;4987273;28;20027;-64
2023/10/10 01:56:40;;;;;;;12.85;5.32;;;15.20;82.90;;;;;;4987129;28;20042;-64
2023/10/10 01:59:10;;;;;;;13.77;5.20;;;15.20;82.70;;;;;;4987423;28;20030;-65
2023/10/10 02:01:35;;;;;;;11.80;4.88;;;15.30;82.80;;;;;;4987129;28;20026;-65
2023/10/10 02:04:07;;;;;;;11.32;5.30;;;15.30;82.80;;;;;;4986429;28;20035;-64
2023/10/10 02:06:35;;;;;;;14.60;5.32;;;15.30;82.90;;;;;;4986510;28;20494;-64
2023/10/10 02:09:27;;;;;;;12.30;4.57;;;15.20;82.70;;;;;;4986305;28;20047;-64
2023/10/10 02:12:04;;;;;;;12.05;5.22;;;15.20;82.80;;;;;;4985924;28;20645;-65
2023/10/10 02:14:30;;;;;;;11.25;4.85;;;15.20;82.80;;;;;;4986186;28;20085;-64
2023/10/10 02:16:59;;;;;;;12.48;5.15;;;15.20;82.90;;;;;;4986222;28;20136;-64
2023/10/10 02:19:33;;;;;;;15.50;4.85;;;15.20;83.10;;;;;;4985924;28;20041;-64
2023/10/10 02:24:48;;;;;;;9.88;4.82;;;15.20;82.70;;;;;;4985906;28;20096;-64
2023/10/10 02:27:28;;;;;;;9.73;4.82;;;15.20;82.50;;;;;;4986529;28;20046;-65
2023/10/10 02:29:53;;;;;;;10.63;4.50;;;15.20;82.40;;;;;;4985973;28;20072;-65
2023/10/10 02:32:19;;;;;;;11.65;5.15;;;15.10;82.50;;;;;;4985875;28;20086;-65
2023/10/10 02:35:00;;;;;;;13.55;5.38;;;15.10;83.10;;;;;;4985614;28;20414;-65
2023/10/10 02:40:05;;;;;;;15.00;5.00;;;15.10;82.90;;;;;;4986064;28;20409;-64
2023/10/10 02:42:33;;;;;;;12.65;5.18;;;15.00;83.00;;;;;;4985457;28;20387;-64
2023/10/10 02:44:59;;;;;;;15.23;5.00;;;15.00;83.00;;;;;;4986442;28;20601;-64
2023/10/10 02:47:30;;;;;;;10.18;4.88;;;15.00;83.30;;;;;;4986262;28;20434;-64
2023/10/10 02:50:01;;;;;;;14.43;4.95;;;15.00;83.30;;;;;;4986169;28;20253;-64
2023/10/10 02:52:28;;;;;;;12.38;5.18;;;15.00;83.20;;;;;;4985365;28;20482;-64
2023/10/10 02:54:54;;;;;;;11.30;4.32;;;15.00;83.00;;;;;;4985307;28;20034;-64
2023/10/10 02:57:26;;;;;;;11.48;5.00;;;15.00;83.10;;;;;;4986297;28;20042;-64
2023/10/10 03:00:15;;;;;;;15.90;4.82;;;15.00;83.10;;;;;;4985560;28;20062;-64
2023/10/10 03:02:49;;;;;;;10.68;4.45;;;15.00;83.10;;;;;;4985356;28;20177;-64
2023/10/10 03:05:17;;;;;;;11.98;4.65;;;15.00;82.90;;;;;;4985880;28;20121;-64
2023/10/10 03:07:51;;;;;;;11.90;5.28;;;15.00;82.90;;;;;;4985688;28;20121;-64
2023/10/10 03:10:23;;;;;;;10.35;4.38;;;15.00;82.80;;;;;;4986323;28;20044;-65
2023/10/10 03:13:03;;;;;;;12.90;4.50;;;14.90;82.40;;;;;;4984485;28;20038;-64
2023/10/10 03:15:29;;;;;;;10.65;4.07;;;14.90;81.90;;;;;;4985678;28;20041;-63
2023/10/10 03:25:51;;;;;;;9.52;3.33;;;14.70;81.50;;;;;;4986120;28;20050;-64
2023/10/10 03:28:32;;;;;;;14.85;4.32;;;14.60;81.40;;;;;;4985741;28;20030;-64
2023/10/10 03:38:58;;;;;;;10.13;4.30;;;14.50;81.30;;;;;;4988752;28;20119;-64
2023/10/10 05:25:15;;;;;;;11.48;5.10;;;13.60;84.10;;;;;;4988211;28;20116;-64
2023/10/10 05:27:41;;;;;;;16.17;5.30;;;13.70;84.30;;;;;;4987780;28;20038;-64
2023/10/10 05:30:27;;;;;;;14.32;5.10;;;13.60;84.20;;;;;;4988268;28;20591;-65
2023/10/10 05:33:00;;;;;;;15.07;5.15;;;13.60;84.50;;;;;;4987225;28;20092;-65
2023/10/10 05:35:32;;;;;;;11.70;4.85;;;13.60;84.80;;;;;;4988344;28;20034;-65
2023/10/10 05:38:02;;;;;;;15.27;5.20;;;13.60;85.00;;;;;;4987989;28;20038;-64
2023/10/10 05:40:27;;;;;;;11.43;5.07;;;13.60;84.90;;;;;;4987204;28;20451;-65
2023/10/10 05:42:57;;;;;;;17.83;6.32;;;13.60;84.80;;;;;;4987532;28;20117;-64
2023/10/10 05:45:22;;;;;;;13.38;5.72;;;13.60;84.80;;;;;;4988110;28;20030;-65
2023/10/10 05:47:48;;;;;;;20.65;6.10;;;13.60;85.20;;;;;;4987601;28;20469;-64
2023/10/10 05:50:14;;;;;;;12.57;5.50;;;13.60;85.50;;;;;;4988027;28;20027;-64
2023/10/10 05:52:43;;;;;;;16.48;6.05;;;13.60;86.00;;;;;;4987273;28;20039;-65
2023/10/10 05:55:10;;;;;;;13.38;5.53;;;13.60;86.40;;;;;;4985749;28;20573;-64
2023/10/10 05:57:37;;;;;;;16.55;6.38;;;13.60;86.20;;;;;;4987651;28;20034;-64
2023/10/10 06:00:10;;;;;;;17.20;6.78;;;13.60;86.00;;;;;;4987563;28;20088;-64
2023/10/10 06:02:36;;;;;;;15.00;6.43;;;13.50;85.50;;;;;;4987466;28;20026;-64
2023/10/10 06:05:04;;;;;;;12.98;6.80;;;13.60;86.20;;;;;;4987161;28;20065;-65
2023/10/10 06:07:30;;;;;;;19.85;7.07;;;13.60;85.20;;;;;;4987098;28;20093;-65
2023/10/10 06:09:57;;;;;;;19.33;6.78;;;13.60;85.10;;;;;;4987611;28;20042;-64
2023/10/10 06:12:24;;;;;;;15.70;7.07;;;13.50;84.90;;;;;;4986149;28;20724;-64
2023/10/10 06:14:49;;;;;;;15.32;7.30;;;13.50;84.80;;;;;;4986641;28;20067;-64
2023/10/10 06:17:16;;;;;;;15.02;6.57;;;13.60;84.90;;;;;;4987565;28;20045;-65
2023/10/10 06:19:45;;;;;;;12.50;6.25;;;13.50;84.90;;;;;;4987365;28;20039;-64
2023/10/10 06:22:14;;;;;;;13.55;6.65;;;13.50;85.00;;;;;;4986921;28;20111;-64
2023/10/10 06:24:40;;;;;;;16.48;5.63;;;13.50;85.00;;;;;;4986518;28;20490;-64
2023/10/10 06:27:09;;;;;;;15.02;6.25;;;13.60;85.00;;;;;;4987112;28;20045;-64
2023/10/10 06:29:35;;;;;;;20.95;5.82;;;13.50;84.90;;;;;;4987400;28;20034;-64
2023/10/10 06:32:02;;;;;;;12.85;5.65;;;13.60;85.00;;;;;;4986562;28;20399;-64
2023/10/10 06:34:34;;;;;;;20.25;5.63;;;13.60;85.20;;;;;;4986152;28;20132;-64
2023/10/10 06:37:07;;;;;;;19.08;5.30;;;13.60;85.20;;;;;;4985733;28;20045;-64
2023/10/10 06:39:54;;;;;;;14.18;5.50;;;13.60;85.50;;;;;;4985776;28;20040;-65
2023/10/10 06:42:27;;;;;;;11.75;5.03;;;13.60;85.60;;;;;;4986637;28;20026;-64
2023/10/10 06:44:53;;;;;;;15.68;4.97;;;13.60;85.90;;;;;;4986624;28;20038;-64
2023/10/10 06:47:21;;;;;;;17.08;5.78;;;13.60;86.40;;;;;;4986910;28;20113;-64
2023/10/10 06:49:54;;;;;;;16.00;5.88;;;13.60;86.90;;;;;;4986594;28;20122;-65
2023/10/10 06:52:19;;;;;;;13.85;5.60;;;13.70;87.50;;;;;;4986439;28;20096;-64
2023/10/10 06:54:54;;;;;;;22.13;6.18;;;13.70;87.80;;;;;;4986159;28;20408;-64
2023/10/10 06:57:36;;;;;;;13.05;6.30;;;13.80;88.70;;;;;;4986264;28;20038;-64
2023/10/10 07:00:20;;;;;;;16.20;6.10;;;13.80;88.90;;;;;;4986749;28;20042;-65
2023/10/10 07:02:53;;;;;;;20.57;6.13;;;13.90;89.70;;;;;;4985956;28;20394;-64
2023/10/10 07:05:19;;;;;;;10.80;5.05;;;14.00;89.20;;;;;;4986825;28;20038;-64
2023/10/10 07:08:12;;;;;;;16.23;6.13;;;14.10;89.30;;;;;;4986039;28;20041;-64
2023/10/10 07:10:42;;;;;;;19.58;6.50;;;14.20;89.70;;;;;;4985339;28;20056;-65
2023/10/10 07:13:18;;;;;;;14.35;5.95;;;14.30;89.50;;;;;;4986365;28;20065;-64
2023/10/10 07:15:51;;;;;;;20.95;5.90;;;14.40;89.90;;;;;;4986535;28;20148;-64
2023/10/10 07:18:23;;;;;;;18.27;6.03;;;14.40;89.90;;;;;;4986503;28;20030;-65
2023/10/10 07:23:20;;;;;;;14.57;6.28;;;14.60;90.20;;;;;;4986193;28;20034;-65
2023/10/10 07:25:58;;;;;;;15.05;6.32;;;14.60;90.10;;;;;;4986898;28;20069;-64
2023/10/10 07:28:26;;;;;;;16.10;6.30;;;14.70;90.20;;;;;;4986314;28;20035;-64
2023/10/10 07:30:55;;;;;;;17.05;6.20;;;14.80;90.20;;;;;;4985819;28;20034;-64
2023/10/10 07:33:29;;;;;;;12.70;6.47;;;15.00;90.30;;;;;;4986492;28;20030;-64
2023/10/10 07:35:55;;;;;;;19.85;7.07;;;15.10;90.80;;;;;;4986245;28;20034;-64
2023/10/10 07:38:28;;;;;;;15.27;6.85;;;15.20;90.40;;;;;;4986586;28;20030;-64
2023/10/10 07:40:54;;;;;;;16.33;6.28;;;15.30;90.50;;;;;;4985974;28;20046;-64
2023/10/10 07:43:26;;;;;;;16.23;6.18;;;15.40;90.50;;;;;;4985766;28;20420;-64
2023/10/10 07:45:54;;;;;;;16.35;5.95;;;15.50;90.50;;;;;;4986121;28;20035;-64
2023/10/10 07:48:38;;;;;;;18.30;6.47;;;15.60;90.50;;;;;;4986113;28;20057;-65
2023/10/10 07:51:07;;;;;;;14.90;6.05;;;15.70;90.50;;;;;;4985834;28;20204;-65
2023/10/10 07:53:41;;;;;;;18.02;6.63;;;15.90;90.40;;;;;;4985764;28;20027;-64
2023/10/10 07:56:07;;;;;;;21.55;7.07;;;15.90;90.50;;;;;;4986181;28;20097;-65
2023/10/10 07:58:56;;;;;;;20.33;7.30;;;16.00;90.30;;;;;;4986112;28;20034;-64
2023/10/10 08:01:23;;;;;;;16.65;6.07;;;16.10;90.20;;;;;;4984846;28;20030;-64
2023/10/10 08:03:49;;;;;;;17.92;6.68;;;16.20;90.10;;;;;;4985883;28;20466;-64
2023/10/10 08:06:22;;;;;;;15.13;6.45;;;16.30;90.20;;;;;;4987374;28;20038;-65
2023/10/10 08:08:56;;;;;;;19.40;6.80;;;16.40;90.40;;;;;;4986766;28;20037;-64
2023/10/10 08:11:35;;;;;;;17.52;5.38;;;16.60;90.50;;;;;;4986614;28;20042;-65
2023/10/10 08:14:05;;;;;;;12.68;5.75;;;16.70;90.40;;;;;;4987033;28;20042;-65
2023/10/10 08:16:33;;;;;;;13.27;5.18;;;16.80;90.40;;;;;;4986732;28;20141;-65
2023/10/10 08:19:04;;;;;;;14.25;5.00;;;17.00;90.30;;;;;;4987581;28;20438;-64
2023/10/10 08:21:36;;;;;;;16.35;4.80;;;17.10;90.20;;;;;;4991110;28;20034;-64
2023/10/10 08:24:03;;;;;;;16.95;5.32;;;17.20;90.00;;;;;;4990270;28;20041;-64
2023/10/10 08:26:29;;;;;;;17.63;4.93;;;17.40;89.80;;;;;;4990221;28;20041;-65
2023/10/10 08:28:55;;;;;;;16.38;4.95;;;17.50;89.60;;;;;;4990629;28;20034;-65
2023/10/10 08:31:22;;;;;;;15.02;4.88;;;17.70;90.00;;;;;;4990234;28;20410;-64
2023/10/10 08:33:48;;;;;;;23.88;5.20;;;17.80;89.00;;;;;;4990174;28;20039;-64
2023/10/10 08:36:24;;;;;;;20.90;5.15;;;18.00;88.80;;;;;;4990382;28;20387;-64
2023/10/10 08:41:42;;;;;;;13.63;5.00;;;18.30;88.10;;;;;;4990327;28;20030;-64
2023/10/10 08:44:11;;;;;;;17.75;5.00;;;18.50;87.80;;;;;;4990155;28;20026;-64
2023/10/10 08:46:41;;;;;;;11.75;4.10;;;18.70;87.00;;;;;;4989880;28;20076;-64
2023/10/10 08:49:08;;;;;;;18.73;4.88;;;18.80;86.30;;;;;;4990065;28;20673;-65
2023/10/10 08:51:34;;;;;;;15.90;4.30;;;18.90;85.70;;;;;;4990233;28;20034;-65
2023/10/10 08:54:11;;;;;;;17.58;4.45;;;19.10;85.30;;;;;;4989814;28;20035;-64
2023/10/10 08:56:41;;;;;;;19.38;5.07;;;19.20;84.40;;;;;;4989715;28;20045;-64
2023/10/10 08:59:10;;;;;;;12.85;4.32;;;19.30;83.80;;;;;;4990348;28;20042;-65
2023/10/10 09:01:36;;;;;;;15.65;4.70;;;19.50;83.60;;;;;;4990300;28;20050;-64
2023/10/10 09:04:03;;;;;;;14.25;3.95;;;19.50;83.10;;;;;;4989398;28;20064;-64
2023/10/10 09:06:45;;;;;;;13.60;4.85;;;19.60;82.50;;;;;;4989920;28;20034;-65
2023/10/10 09:11:58;;;;;;;17.48;4.28;;;19.80;81.70;;;;;;4989446;28;20049;-64
2023/10/10 09:14:43;;;;;;;19.50;4.40;;;19.90;81.50;;;;;;4989961;28;20034;-64
2023/10/10 09:17:28;;;;;;;20.77;4.38;;;20.00;80.10;;;;;;4988755;28;20242;-65
2023/10/10 09:19:57;;;;;;;17.77;3.83;;;20.10;79.70;;;;;;4989635;28;20035;-65
2023/10/10 09:22:30;;;;;;;14.30;4.13;;;20.20;80.30;;;;;;4989507;28;20030;-64
2023/10/10 09:24:55;;;;;;;15.32;4.50;;;20.30;78.90;;;;;;4989224;28;20034;-65
2023/10/10 09:27:22;;;;;;;12.32;4.13;;;20.40;79.20;;;;;;4989453;28;20282;-65
2023/10/10 09:29:54;;;;;;;21.80;4.28;;;20.50;79.00;;;;;;4989011;28;20045;-65
2023/10/10 09:32:27;;;;;;;14.10;4.65;;;20.50;78.20;;;;;;4989672;28;20573;-65
2023/10/10 09:34:54;;;;;;;21.35;4.53;;;20.60;77.90;;;;;;4989142;28;20043;-65
2023/10/10 09:37:34;;;;;;;16.45;4.70;;;20.70;77.50;;;;;;4989796;28;20061;-64
2023/10/10 09:40:07;;;;;;;13.82;4.35;;;20.70;77.90;;;;;;4988733;28;20038;-65
2023/10/10 09:48:33;;;;;;;13.52;4.32;;;20.90;76.70;;;;;;4988887;28;20084;-65
2023/10/10 09:51:15;;;;;;;14.70;3.80;;;21.00;76.90;;;;;;4988334;28;20606;-65
2023/10/10 09:53:46;;;;;;;13.85;4.57;;;21.00;76.40;;;;;;4989179;28;20038;-64
2023/10/10 09:56:14;;;;;;;17.25;4.07;;;21.10;76.00;;;;;;4988943;28;20493;-64
2023/10/10 09:58:42;;;;;;;11.32;3.90;;;21.30;76.00;;;;;;4988166;28;20023;-65
2023/10/10 10:01:22;;;;;;;11.18;4.57;;;21.30;75.50;;;;;;4988745;28;20515;-65
2023/10/10 10:04:11;;;;;;;17.42;4.10;;;21.40;75.10;;;;;;4988340;28;20565;-64
2023/10/10 10:07:12;;;;;;;13.70;4.07;;;21.50;74.20;;;;;;4988750;28;20045;-64
2023/10/10 10:10:09;;;;;;;10.00;3.75;;;21.60;74.00;;;;;;4989058;28;20189;-65
2023/10/10 10:12:35;;;;;;;16.50;3.72;;;21.70;73.80;;;;;;4984962;28;20030;-65
2023/10/10 10:15:24;;;;;;;15.38;4.22;;;21.80;74.40;;;;;;4988752;28;20068;-65
2023/10/10 10:18:26;;;;;;;13.73;3.67;;;21.90;72.80;;;;;;4988455;28;20056;-65
2023/10/10 10:23:45;;;;;;;14.52;4.25;;;22.00;73.30;;;;;;4988296;28;20049;-65
2023/10/10 10:26:11;;;;;;;16.60;3.88;;;22.10;73.50;;;;;;4988642;28;20034;-65
2023/10/10 10:28:41;;;;;;;17.38;4.35;;;22.20;73.30;;;;;;4987690;28;20031;-64
2023/10/10 10:31:28;;;;;;;16.98;4.30;;;22.20;73.20;;;;;;4988171;28;20498;-65
2023/10/10 10:34:23;;;;;;;10.55;3.35;;;22.30;72.10;;;;;;4987934;28;20054;-65
2023/10/10 10:37:06;;;;;;;14.63;3.33;;;22.40;72.00;;;;;;4987720;28;20401;-65
2023/10/10 10:39:36;;;;;;;9.63;3.45;;;22.50;71.80;;;;;;4988275;28;20597;-64
2023/10/10 10:42:15;;;;;;;12.75;3.75;;;22.60;72.00;;;;;;4987085;28;20124;-64
2023/10/10 10:44:47;;;;;;;13.27;3.50;;;22.70;71.40;;;;;;4987541;28;20046;-65
2023/10/10 10:47:34;;;;;;;9.25;3.55;;;22.70;70.80;;;;;;4988569;28;20034;-65
2023/10/10 10:50:04;;;;;;;14.27;3.63;;;22.80;69.70;;;;;;4988063;28;20306;-65
2023/10/10 10:52:43;;;;;;;12.77;3.97;;;22.90;70.10;;;;;;4987238;28;20071;-64
2023/10/10 10:55:22;;;;;;;11.68;4.10;;;22.90;69.20;;;;;;4987498;28;20034;-64
2023/10/10 10:57:49;;;;;;;12.20;3.95;;;23.00;69.50;;;;;;4987907;28;20510;-65
2023/10/10 11:00:40;;;;;;;8.65;3.70;;;23.00;70.00;;;;;;4988042;28;20052;-65
2023/10/10 11:03:11;;;;;;;10.45;3.28;;;23.10;70.10;;;;;;4987268;28;20038;-65
2023/10/10 11:05:39;;;;;;;12.38;3.67;;;23.20;70.20;;;;;;4987963;28;20490;-64
2023/10/10 11:08:11;;;;;;;11.35;3.88;;;23.20;69.30;;;;;;4986568;28;20038;-65
2023/10/10 11:10:38;;;;;;;12.18;3.60;;;23.30;68.00;;;;;;4985865;28;20027;-65
2023/10/10 11:13:07;;;;;;;17.08;4.45;;;23.40;69.30;;;;;;4987167;28;20031;-65
2023/10/10 11:15:38;;;;;;;12.82;4.25;;;23.40;69.70;;;;;;4987631;28;20041;-65
2023/10/10 11:18:11;;;;;;;12.57;3.90;;;23.50;69.30;;;;;;4987370;28;20554;-65
2023/10/10 11:20:56;;;;;;;10.05;4.00;;;23.50;69.20;;;;;;4987197;28;20038;-65
2023/10/10 11:23:32;;;;;;;14.77;4.10;;;23.60;69.10;;;;;;4987567;28;20295;-65
2023/10/10 11:26:00;;;;;;;18.58;4.03;;;23.60;69.00;;;;;;4987264;28;20034;-64
2023/10/10 11:28:47;;;;;;;12.20;3.65;;;23.70;68.60;;;;;;4987171;28;20038;-65
2023/10/10 11:31:16;;;;;;;12.73;3.60;;;23.70;67.80;;;;;;4987577;28;20034;-65
2023/10/10 11:34:34;;;;;;;15.32;3.72;;;23.80;68.00;;;;;;4987422;28;20065;-64
2023/10/10 11:36:42;;;;;;;13.82;3.85;;;23.80;67.10;;;;;;4978908;28;20130;-65
2023/10/10 11:39:31;;;;;;;10.25;3.50;;;23.80;67.30;;;;;;4987705;28;20042;-65
2023/10/10 11:41:57;;;;;;;13.55;3.63;;;23.80;66.10;;;;;;4987515;28;20045;-65
2023/10/10 11:44:23;;;;;;;11.63;3.75;;;23.80;67.40;;;;;;4987165;28;20026;-65
2023/10/10 11:46:49;;;;;;;11.85;3.53;;;23.90;67.30;;;;;;4987912;28;20041;-65
2023/10/10 11:49:16;;;;;;;13.00;3.50;;;23.90;66.90;;;;;;4987782;28;20027;-65
2023/10/10 11:51:42;;;;;;;11.63;3.70;;;24.00;66.60;;;;;;4987522;28;20044;-64
2023/10/10 11:54:08;;;;;;;13.02;3.30;;;24.00;66.40;;;;;;4989973;28;20402;-65
2023/10/10 11:56:36;;;;;;;12.38;3.33;;;24.00;66.50;;;;;;4991097;28;20046;-65
2023/10/10 11:59:14;;;;;;;10.50;3.53;;;24.00;66.50;;;;;;4991055;28;20109;-65
2023/10/10 12:02:07;;;;;;;16.85;3.90;;;24.00;65.70;;;;;;4990940;28;20402;-65
2023/10/10 12:04:33;;;;;;;13.60;3.33;;;24.00;65.70;;;;;;4990386;28;20082;-64
2023/10/10 12:07:00;;;;;;;10.95;3.50;;;24.10;66.20;;;;;;4991183;28;20239;-65
2023/10/10 12:09:28;;;;;;;14.20;4.00;;;24.10;66.00;;;;;;4991070;28;20491;-65
2023/10/10 12:12:02;;;;;;;12.55;3.47;;;24.10;65.40;;;;;;4989612;28;20046;-65
2023/10/10 12:14:30;;;;;;;13.90;3.33;;;24.10;65.40;;;;;;4990743;28;20047;-66
2023/10/10 12:16:59;;;;;;;13.20;3.35;;;24.20;65.50;;;;;;4990345;28;20522;-65
2023/10/10 12:19:30;;;;;;;20.48;3.67;;;24.20;65.10;;;;;;4991086;28;20035;-65
2023/10/10 12:22:06;;;;;;;8.95;3.28;;;24.30;65.60;;;;;;4990689;28;20069;-65
2023/10/10 12:24:32;;;;;;;9.80;3.35;;;24.30;65.50;;;;;;4990115;28;20156;-65
2023/10/10 12:26:57;;;;;;;13.85;3.70;;;24.40;65.20;;;;;;4991106;28;20512;-65
2023/10/10 12:29:23;;;;;;;12.95;3.28;;;24.40;64.50;;;;;;4990869;28;20035;-65
2023/10/10 12:31:55;;;;;;;13.05;3.55;;;24.40;64.70;;;;;;4990731;28;20046;-64
2023/10/10 12:34:22;;;;;;;14.90;3.58;;;24.40;64.60;;;;;;4990184;28;20070;-65
2023/10/10 12:36:49;;;;;;;11.02;3.15;;;24.50;64.60;;;;;;4989928;28;20045;-65
2023/10/10 12:39:15;;;;;;;16.70;3.90;;;24.50;64.70;;;;;;4990274;28;20425;-65
2023/10/10 12:41:46;;;;;;;9.77;3.30;;;24.60;64.00;;;;;;4990809;28;20038;-65
2023/10/10 12:44:12;;;;;;;12.77;3.40;;;24.60;64.00;;;;;;4990151;28;20046;-65
2023/10/10 12:46:40;;;;;;;12.48;3.30;;;24.60;64.00;;;;;;4989867;28;20053;-65
2023/10/10 12:49:11;;;;;;;17.15;3.83;;;24.60;64.00;;;;;;4990216;28;20023;-64
2023/10/10 12:51:44;;;;;;;16.05;3.40;;;24.60;64.20;;;;;;4990126;28;20058;-65
2023/10/10 12:54:12;;;;;;;18.92;3.67;;;24.60;63.10;;;;;;4990031;28;20025;-65
2023/10/10 12:56:48;;;;;;;9.93;3.05;;;24.60;63.00;;;;;;4989562;28;20083;-65
2023/10/10 12:59:18;;;;;;;12.95;3.05;;;24.70;62.00;;;;;;4990073;28;20055;-65
2023/10/10 13:01:44;;;;;;;14.27;3.13;;;24.70;60.60;;;;;;4989765;28;20027;-65
2023/10/10 13:04:11;;;;;;;9.88;2.80;;;24.80;59.80;;;;;;4988885;28;20038;-64
2023/10/10 13:06:39;;;;;;;13.38;2.88;;;24.80;59.20;;;;;;4989507;28;20038;-65
2023/10/10 13:09:08;;;;;;;11.70;3.67;;;24.80;59.10;;;;;;4989875;28;20080;-64
2023/10/10 13:11:43;;;;;;;11.98;2.97;;;24.90;60.10;;;;;;4989637;28;20080;-65
2023/10/10 13:14:10;;;;;;;10.88;2.80;;;24.90;59.00;;;;;;4989821;28;20405;-65
2023/10/10 13:19:09;;;;;;;10.82;3.35;;;25.00;59.40;;;;;;4989818;28;20145;-65
2023/10/10 13:21:36;;;;;;;14.05;3.38;;;25.00;59.40;;;;;;4989585;28;20322;-65
2023/10/10 13:24:03;;;;;;;11.80;3.47;;;25.10;58.90;;;;;;4988867;28;20039;-65
2023/10/10 13:26:29;;;;;;;12.82;3.15;;;25.10;58.70;;;;;;4988770;28;20394;-65
2023/10/10 13:28:55;;;;;;;9.00;2.40;;;25.10;58.60;;;;;;4989326;28;20084;-65
2023/10/10 13:31:24;;;;;;;13.95;3.33;;;25.10;58.70;;;;;;4989187;28;20478;-65
2023/10/10 13:33:51;;;;;;;12.57;2.88;;;25.10;58.70;;;;;;4989204;28;20113;-65
2023/10/10 13:36:16;;;;;;;10.13;3.15;;;25.20;58.30;;;;;;4989399;28;20038;-65
2023/10/10 13:38:49;;;;;;;14.43;3.38;;;25.20;58.20;;;;;;4987346;28;20037;-64
2023/10/10 13:41:18;;;;;;;10.40;3.05;;;25.20;58.10;;;;;;4989202;28;20116;-65
2023/10/10 13:43:48;;;;;;;13.98;3.33;;;25.20;58.50;;;;;;4988368;28;20035;-65
2023/10/10 13:46:16;;;;;;;11.30;2.95;;;25.20;58.00;;;;;;4989386;28;20042;-65
2023/10/10 13:48:42;;;;;;;13.27;3.17;;;25.20;58.30;;;;;;4988721;28;20129;-65
2023/10/10 13:51:08;;;;;;;15.02;3.20;;;25.20;58.40;;;;;;4988986;28;20525;-65
2023/10/10 13:53:35;;;;;;;15.45;2.72;;;25.20;58.40;;;;;;4989028;28;20034;-65
2023/10/10 13:56:03;;;;;;;11.90;3.10;;;25.20;58.50;;;;;;4980669;28;20054;-65
2023/10/10 13:58:29;;;;;;;13.75;3.25;;;25.20;58.20;;;;;;4988367;28;20038;-65
2023/10/10 14:00:55;;;;;;;12.15;3.03;;;25.20;58.20;;;;;;4989031;28;20030;-65
2023/10/10 14:03:35;;;;;;;13.93;3.05;;;25.20;58.20;;;;;;4988623;28;20053;-65
2023/10/10 14:06:08;;;;;;;12.38;3.15;;;25.30;58.10;;;;;;4988490;28;20063;-65
2023/10/10 14:08:33;;;;;;;16.63;3.00;;;25.30;58.20;;;;;;4988001;28;20029;-65
2023/10/10 14:11:00;;;;;;;10.10;2.80;;;25.30;57.20;;;;;;4985457;28;20054;-65
2023/10/10 14:13:29;;;;;;;14.20;2.70;;;25.30;57.30;;;;;;4986558;28;20034;-66
2023/10/10 14:16:00;;;;;;;11.85;2.90;;;25.30;56.70;;;;;;4984458;28;20053;-66
2023/10/10 14:18:42;;;;;;;11.18;2.88;;;25.40;56.90;;;;;;4987217;28;20423;-66
2023/10/10 14:21:10;;;;;;;10.18;2.45;;;25.30;56.10;;;;;;4989122;28;20038;-66
2023/10/10 14:23:37;;;;;;;15.18;3.33;;;25.30;56.50;;;;;;4987860;28;20049;-66
2023/10/10 14:26:12;;;;;;;12.68;3.38;;;25.30;56.60;;;;;;4989299;28;20022;-66
2023/10/10 14:28:38;;;;;;;12.07;2.65;;;25.40;56.50;;;;;;4987369;28;20041;-66
2023/10/10 14:31:04;;;;;;;17.67;3.60;;;25.40;56.40;;;;;;4987744;28;20122;-65
2023/10/10 14:33:30;;;;;;;12.23;3.22;;;25.40;56.50;;;;;;4987103;28;20609;-66
2023/10/10 14:35:55;;;;;;;13.68;2.90;;;25.40;57.00;;;;;;4986749;28;20065;-65
2023/10/10 14:38:21;;;;;;;13.40;3.40;;;25.40;56.30;;;;;;4987945;28;20026;-65
2023/10/10 14:40:46;;;;;;;10.88;2.92;;;25.30;56.30;;;;;;4987422;28;20030;-66
2023/10/10 14:43:12;;;;;;;14.85;3.70;;;25.30;56.20;;;;;;4988223;28;20046;-66
2023/10/10 14:45:42;;;;;;;12.80;3.50;;;25.30;55.90;;;;;;4987066;28;20375;-65
2023/10/10 14:48:18;;;;;;;15.77;3.35;;;25.30;56.00;;;;;;4985850;28;20035;-65
2023/10/10 14:50:52;;;;;;;11.20;3.08;;;25.30;56.10;;;;;;4986337;28;20038;-66
2023/10/10 14:53:24;;;;;;;11.73;3.30;;;25.30;56.00;;;;;;4988517;28;20030;-66
2023/10/10 14:55:53;;;;;;;12.38;3.05;;;25.30;55.90;;;;;;4987178;28;20438;-65
2023/10/10 14:58:21;;;;;;;10.60;2.60;;;25.20;56.20;;;;;;4988054;28;20038;-65
2023/10/10 15:00:49;;;;;;;12.93;2.88;;;25.20;55.90;;;;;;4986304;28;20122;-65
2023/10/10 15:03:15;;;;;;;15.18;3.28;;;25.20;55.90;;;;;;4986976;28;20117;-65
2023/10/10 15:05:49;;;;;;;15.10;3.58;;;25.20;56.10;;;;;;4986625;28;20065;-65
2023/10/10 15:08:16;;;;;;;8.93;2.75;;;25.20;55.30;;;;;;4986064;28;20031;-65
2023/10/10 15:10:42;;;;;;;18.77;3.33;;;25.10;55.60;;;;;;4985000;28;20113;-65
2023/10/10 15:13:08;;;;;;;15.35;3.42;;;25.10;55.60;;;;;;4987695;28;20122;-66
2023/10/10 15:15:35;;;;;;;16.48;3.17;;;25.10;55.40;;;;;;4988091;28;20035;-65
2023/10/10 15:18:01;;;;;;;13.27;3.03;;;25.10;55.20;;;;;;4987491;28;20042;-66
2023/10/10 15:20:27;;;;;;;18.60;3.30;;;25.10;55.40;;;;;;4986807;28;20053;-65
2023/10/10 15:22:53;;;;;;;10.45;3.13;;;25.10;55.60;;;;;;4987374;28;20117;-65
2023/10/10 15:25:21;;;;;;;14.75;2.85;;;25.10;56.00;;;;;;4986011;28;20038;-66
2023/10/10 15:27:47;;;;;;;9.50;3.00;;;25.00;55.90;;;;;;4985096;28;20259;-65
2023/10/10 15:30:15;;;;;;;14.85;3.10;;;25.00;55.70;;;;;;4990083;28;20524;-65